createdAt,value
2019-05-23T00:00:58.569Z,98924.65
2019-05-23T00:06:24.511Z,98928.09
2019-05-23T00:12:04.524Z,98935.05
2019-05-23T00:17:25.898Z,98934.52
2019-05-23T00:22:32.569Z,98935.09
2019-05-23T00:27:40.088Z,98935.83
2019-05-23T00:32:47.736Z,98929.73
2019-05-23T00:37:52.979Z,98929.46
2019-05-23T00:42:59.547Z,98931.91
2019-05-23T00:48:06.194Z,98924.92
2019-05-23T00:53:11.927Z,98927.26
2019-05-23T00:58:19.282Z,98927.11
2019-05-23T01:03:28.323Z,98927.15
2019-05-23T01:08:35.360Z,98921.81
2019-05-23T01:13:40.664Z,98920.20
2019-05-23T01:18:46.352Z,98920.48
2019-05-23T01:23:58.058Z,98918.64
2019-05-23T01:29:04.174Z,98912.83
2019-05-23T01:34:12.528Z,98911.06
2019-05-23T01:39:19.189Z,98906.20
2019-05-23T01:44:26.711Z,98900.62
2019-05-23T01:49:31.931Z,98909.64
2019-05-23T01:54:38.362Z,98909.81
2019-05-23T01:59:45.321Z,98914.31
2019-05-23T02:04:51.421Z,98912.59
2019-05-23T02:09:56.862Z,98912.31
2019-05-23T02:15:06.270Z,98910.37
2019-05-23T02:20:14.107Z,98915.22
2019-05-23T02:25:21.551Z,98909.05
2019-05-23T02:30:34.588Z,98909.04
2019-05-23T02:35:36.964Z,98912.67
2019-05-23T02:41:05.384Z,98914.77
2019-05-23T02:46:19.762Z,98913.28
2019-05-23T02:51:29.314Z,98909.14
2019-05-23T02:56:38.730Z,98908.31
2019-05-23T03:02:15.835Z,98909.94
2019-05-23T03:07:25.750Z,98910.54
2019-05-23T03:12:32.945Z,98902.13
2019-05-23T03:17:43.010Z,98902.27
2019-05-23T03:22:51.066Z,98899.42
2019-05-23T03:27:57.557Z,98894.34
2019-05-23T03:33:05.904Z,98902.46
2019-05-23T03:38:13.053Z,98900.70
2019-05-23T03:43:19.080Z,98903.70
2019-05-23T03:48:28.441Z,98906.07
2019-05-23T03:53:35.871Z,98905.48
2019-05-23T03:58:41.772Z,98893.43
2019-05-23T04:03:48.831Z,98890.69
2019-05-23T04:08:54.804Z,98883.70
2019-05-23T04:14:00.087Z,98887.88
2019-05-23T04:19:06.433Z,98892.71
2019-05-23T04:24:11.974Z,98895.31
2019-05-23T04:29:17.431Z,98895.42
2019-05-23T04:34:22.748Z,98902.73
2019-05-23T04:39:30.629Z,98894.54
2019-05-23T04:44:36.615Z,98898.75
2019-05-23T04:49:42.408Z,98894.48
2019-05-23T04:54:49.040Z,98895.72
2019-05-23T04:59:55.033Z,98894.61
2019-05-23T05:05:01.057Z,98889.77
2019-05-23T05:10:07.010Z,98896.04
2019-05-23T05:15:12.508Z,98895.94
2019-05-23T05:20:18.083Z,98889.56
2019-05-23T05:25:23.347Z,98884.52
2019-05-23T05:30:29.796Z,98886.34
2019-05-23T05:35:35.710Z,98892.91
2019-05-23T05:40:42.301Z,98891.73
2019-05-23T05:45:47.639Z,98902.27
2019-05-23T05:50:53.290Z,98898.27
2019-05-23T05:55:58.709Z,98897.81
2019-05-23T06:01:06.749Z,98901.43
2019-05-23T06:06:19.565Z,98908.64
2019-05-23T06:11:25.357Z,98903.44
2019-05-23T06:16:30.775Z,98906.23
2019-05-23T06:21:36.713Z,98908.25
2019-05-23T06:26:44.826Z,98910.35
2019-05-23T06:31:50.368Z,98907.81
2019-05-23T06:36:55.595Z,98911.11
2019-05-23T06:42:01.098Z,98908.91
2019-05-23T06:47:07.788Z,98907.02
2019-05-23T06:52:14.656Z,98904.39
2019-05-23T06:57:20.884Z,98909.25
2019-05-23T07:02:31.612Z,98902.83
2019-05-23T07:07:35.970Z,98907.20
2019-05-23T07:12:41.409Z,98906.52
2019-05-23T07:17:46.763Z,98909.51
2019-05-23T07:22:52.385Z,98910.61
2019-05-23T07:27:58.403Z,98910.61
2019-05-23T07:33:03.791Z,98910.53
2019-05-23T07:38:09.014Z,98916.10
2019-05-23T07:43:14.707Z,98911.87
2019-05-23T07:48:20.231Z,98904.64
2019-05-23T07:53:46.824Z,98909.17
2019-05-23T07:58:53.627Z,98903.35
2019-05-23T08:04:17.958Z,98896.94
2019-05-23T08:09:09.628Z,98895.78
2019-05-23T08:14:14.851Z,98889.77
2019-05-23T08:19:20.497Z,98879.36
2019-05-23T08:24:25.845Z,98878.18
2019-05-23T08:29:31.589Z,98872.22
2019-05-23T08:34:42.401Z,98871.02
2019-05-23T08:39:45.875Z,98876.47
2019-05-23T08:44:51.915Z,98874.91
2019-05-23T08:49:57.256Z,98868.88
2019-05-23T08:55:07.313Z,98872.05
2019-05-23T09:00:13.428Z,98872.79
2019-05-23T09:05:21.713Z,98867.20
2019-05-23T09:10:27.405Z,98863.94
2019-05-23T09:15:32.745Z,98862.41
2019-05-23T09:20:38.714Z,98857.16
2019-05-23T09:25:44.941Z,98855.34
2019-05-23T09:30:50.431Z,98860.30
2019-05-23T09:35:55.739Z,98854.11
2019-05-23T09:41:01.221Z,98858.06
2019-05-23T09:46:06.568Z,98858.47
2019-05-23T09:51:12.156Z,98856.23
2019-05-23T09:56:17.508Z,98842.94
2019-05-23T10:01:25.062Z,98839.53
2019-05-23T10:06:30.577Z,98838.71
2019-05-23T10:11:36.126Z,98828.37
2019-05-23T10:16:41.805Z,98824.52
2019-05-23T10:21:47.216Z,98819.49
2019-05-23T10:26:52.853Z,98815.53
2019-05-23T10:31:58.090Z,98809.73
2019-05-23T10:37:05.745Z,98806.81
2019-05-23T10:42:11.104Z,98803.27
2019-05-23T10:47:16.385Z,98797.52
2019-05-23T10:52:21.809Z,98792.90
2019-05-23T10:57:27.337Z,98795.26
2019-05-23T11:02:32.825Z,98791.02
2019-05-23T11:07:39.753Z,98784.89
2019-05-23T11:12:45.007Z,98785.83
2019-05-23T11:17:53.464Z,98780.73
2019-05-23T11:22:58.029Z,98774.02
2019-05-23T11:28:03.296Z,98770.38
2019-05-23T11:33:09.780Z,98762.97
2019-05-23T11:38:16.774Z,98754.08
2019-05-23T11:43:22.030Z,98752.88
2019-05-23T11:48:29.101Z,98758.48
2019-05-23T11:53:34.927Z,98751.05
2019-05-23T11:58:40.186Z,98749.42
2019-05-23T12:03:47.433Z,98732.09
2019-05-23T12:08:53.697Z,98732.73
2019-05-23T12:14:02.664Z,98726.91
2019-05-23T12:19:08.258Z,98719.54
2019-05-23T12:24:14.985Z,98715.42
2019-05-23T12:29:21.922Z,98714.77
2019-05-23T12:34:27.425Z,98710.87
2019-05-23T12:39:33.648Z,98709.85
2019-05-23T12:44:38.892Z,98699.64
2019-05-23T12:49:52.143Z,98705.25
2019-05-23T12:54:57.365Z,98705.23
2019-05-23T13:00:04.386Z,98695.81
2019-05-23T13:05:11.826Z,98691.71
2019-05-23T13:10:17.245Z,98694.45
2019-05-23T13:15:23.294Z,98688.52
2019-05-23T13:20:28.784Z,98681.23
2019-05-23T13:25:34.198Z,98682.36
2019-05-23T13:30:39.516Z,98674.01
2019-05-23T13:35:45.742Z,98669.97
2019-05-23T13:40:51.188Z,98667.85
2019-05-23T13:45:56.733Z,98666.50
2019-05-23T13:51:02.145Z,98654.92
2019-05-23T13:56:07.624Z,98652.34
2019-05-23T14:01:12.875Z,98641.05
2019-05-23T14:06:18.210Z,98642.88
2019-05-23T14:11:23.438Z,98643.41
2019-05-23T14:16:30.374Z,98626.31
2019-05-23T14:21:37.005Z,98626.05
2019-05-23T14:26:49.766Z,98635.81
2019-05-23T14:32:03.636Z,98630.45
2019-05-23T14:37:17.333Z,98631.55
2019-05-23T14:42:42.331Z,98623.78
2019-05-23T14:53:13.105Z,98612.03
2019-05-23T14:58:18.571Z,98619.02
2019-05-23T15:03:25.780Z,98611.94
2019-05-23T15:08:49.549Z,98604.86
2019-05-23T15:13:38.556Z,98602.58
2019-05-23T15:18:44.271Z,98594.14
2019-05-23T15:23:50.192Z,98592.97
2019-05-23T15:28:56.134Z,98591.36
2019-05-23T15:34:01.748Z,98593.02
2019-05-23T15:39:29.516Z,98586.58
2019-05-23T15:44:35.588Z,98583.52
2019-05-23T15:49:42.765Z,98582.40
2019-05-23T15:54:55.965Z,98572.73
2019-05-23T16:00:20.246Z,98570.77
2019-05-23T16:05:26.845Z,98571.22
2019-05-23T16:10:32.742Z,98568.83
2019-05-23T16:15:38.008Z,98565.83
2019-05-23T16:20:43.316Z,98558.70
2019-05-23T16:25:48.554Z,98554.63
2019-05-23T16:30:54.188Z,98557.73
2019-05-23T16:36:00.410Z,98549.03
2019-05-23T16:41:05.781Z,98555.45
2019-05-23T16:46:11.555Z,98553.22
2019-05-23T16:51:17.104Z,98551.96
2019-05-23T16:56:27.959Z,98549.14
2019-05-23T17:01:56.978Z,98548.31
2019-05-23T17:07:02.072Z,98548.03
2019-05-23T17:12:29.093Z,98539.00
2019-05-23T17:18:02.938Z,98540.40
2019-05-23T17:23:29.079Z,98537.11
2019-05-23T17:28:37.589Z,98534.45
2019-05-23T17:33:44.776Z,98540.16
2019-05-23T17:38:50.633Z,98535.89
2019-05-23T17:44:03.356Z,98537.84
2019-05-23T17:49:10.432Z,98536.97
2019-05-23T17:54:17.393Z,98537.61
2019-05-23T17:59:22.753Z,98531.97
2019-05-23T18:04:28.806Z,98530.56
2019-05-23T18:09:35.889Z,98530.41
2019-05-23T18:14:43.054Z,98528.59
2019-05-23T18:19:48.405Z,98527.81
2019-05-23T18:24:59.325Z,98531.08
2019-05-23T18:30:01.870Z,98531.27
2019-05-23T18:35:09.823Z,98539.25
2019-05-23T18:40:16.586Z,98537.54
2019-05-23T18:45:23.118Z,98536.79
2019-05-23T18:50:28.848Z,98535.49
2019-05-23T18:55:34.399Z,98533.00
2019-05-23T19:01:14.006Z,98531.03
2019-05-23T19:06:19.871Z,98538.09
2019-05-23T19:11:25.700Z,98540.55
2019-05-23T19:16:32.910Z,98546.78
2019-05-23T19:21:40.048Z,98550.81
2019-05-23T19:26:47.184Z,98555.81
2019-05-23T19:31:54.554Z,98554.42
2019-05-23T19:37:03.604Z,98558.36
2019-05-23T19:42:09.724Z,98554.73
2019-05-23T19:47:15.120Z,98552.02
2019-05-23T19:52:21.130Z,98550.55
2019-05-23T19:57:30.785Z,98552.27
2019-05-23T20:02:41.870Z,98560.00
2019-05-23T20:07:49.392Z,98558.98
2019-05-23T20:12:54.686Z,98567.36
2019-05-23T20:18:01.374Z,98566.46
2019-05-23T20:23:07.446Z,98568.61
2019-05-23T20:28:12.724Z,98564.67
2019-05-23T20:33:19.230Z,98573.41
2019-05-23T20:38:27.258Z,98586.16
2019-05-23T20:43:33.163Z,98588.70
2019-05-23T20:48:38.788Z,98586.27
2019-05-23T20:53:44.759Z,98587.03
2019-05-23T20:58:50.026Z,98584.75
2019-05-23T21:03:56.438Z,98584.31
2019-05-23T21:13:52.212Z,98586.73
2019-05-23T21:18:57.484Z,98595.62
2019-05-23T21:24:02.833Z,98589.84
2019-05-23T21:29:08.084Z,98590.77
2019-05-23T21:34:13.637Z,98595.27
2019-05-23T21:39:19.094Z,98584.81
2019-05-23T21:44:24.781Z,98588.70
2019-05-23T21:49:30.124Z,98596.28
2019-05-23T21:54:35.565Z,98587.97
2019-05-23T21:59:40.850Z,98588.47
2019-05-23T22:04:58.335Z,98591.02
2019-05-23T22:10:04.566Z,98583.98
2019-05-23T22:15:12.708Z,98584.75
2019-05-23T22:20:18.269Z,98579.99
2019-05-23T22:25:33.662Z,98576.41
2019-05-23T22:30:39.728Z,98574.92
2019-05-23T22:35:45.393Z,98569.56
2019-05-23T22:40:50.820Z,98570.25
2019-05-23T22:45:57.169Z,98564.92
2019-05-23T22:51:02.867Z,98567.16
2019-05-23T22:56:09.262Z,98572.16
2019-05-23T23:01:16.673Z,98572.19
2019-05-23T23:06:23.227Z,98572.42
2019-05-23T23:11:28.907Z,98577.16
2019-05-23T23:16:34.360Z,98574.35
2019-05-23T23:21:39.597Z,98574.63
2019-05-23T23:26:44.998Z,98573.52
2019-05-23T23:31:50.607Z,98574.58
2019-05-23T23:36:55.877Z,98574.80
2019-05-23T23:42:01.156Z,98569.67
2019-05-23T23:47:24.894Z,98570.86
2019-05-23T23:52:48.000Z,98572.92
2019-05-23T23:58:02.214Z,98574.58
